createdAt,value
2018-09-01T00:00:38.686Z,0.00
2018-09-01T00:01:38.675Z,0.00
2018-09-01T00:02:38.693Z,0.00
2018-09-01T00:03:38.649Z,0.00
2018-09-01T00:04:38.637Z,0.00
2018-09-01T00:05:38.631Z,0.00
2018-09-01T00:06:38.616Z,0.00
2018-09-01T00:07:38.635Z,0.00
2018-09-01T00:08:38.599Z,0.00
2018-09-01T00:09:38.597Z,0.00
2018-09-01T00:10:38.571Z,0.00
2018-09-01T00:11:38.559Z,0.00
2018-09-01T00:12:38.572Z,0.00
2018-09-01T00:13:38.543Z,0.00
2018-09-01T00:14:38.531Z,0.00
2018-09-01T00:15:38.521Z,0.00
2018-09-01T00:16:38.504Z,0.00
2018-09-01T00:17:38.528Z,0.00
2018-09-01T00:18:38.488Z,0.00
2018-09-01T00:19:38.466Z,0.00
2018-09-01T00:20:38.452Z,0.00
2018-09-01T00:21:38.449Z,0.00
2018-09-01T00:22:38.460Z,0.00
2018-09-01T00:23:38.412Z,0.00
2018-09-01T00:24:38.404Z,0.00
2018-09-01T00:25:38.400Z,0.00
2018-09-01T00:26:38.384Z,0.00
2018-09-01T00:27:38.400Z,0.00
2018-09-01T00:28:38.368Z,0.00
2018-09-01T00:29:38.346Z,0.00
2018-09-01T00:30:38.365Z,0.00
2018-09-01T00:31:38.328Z,0.00
2018-09-01T00:32:38.351Z,0.00
2018-09-01T00:33:38.304Z,0.00
2018-09-01T00:34:38.292Z,0.00
2018-09-01T00:35:38.276Z,0.00
2018-09-01T00:36:38.268Z,0.00
2018-09-01T00:37:38.287Z,0.00
2018-09-01T00:38:38.251Z,0.00
2018-09-01T00:39:38.245Z,0.00
2018-09-01T00:40:38.230Z,0.00
2018-09-01T00:41:38.212Z,0.00
2018-09-01T00:42:38.248Z,0.00
2018-09-01T00:43:38.193Z,0.00
2018-09-01T00:44:38.180Z,0.00
2018-09-01T00:45:38.172Z,0.00
2018-09-01T00:46:38.160Z,0.00
2018-09-01T00:47:38.186Z,0.00
2018-09-01T00:48:38.134Z,0.00
2018-09-01T00:49:38.132Z,0.00
2018-09-01T00:50:38.107Z,0.00
2018-09-01T00:51:38.113Z,0.00
2018-09-01T00:52:38.159Z,0.00
2018-09-01T00:53:38.090Z,0.00
2018-09-01T00:54:38.081Z,0.00
2018-09-01T00:55:38.063Z,0.00
2018-09-01T00:56:38.051Z,0.00
2018-09-01T00:57:38.075Z,0.00
2018-09-01T00:58:38.029Z,0.00
2018-09-01T00:59:38.026Z,0.00
2018-09-01T01:00:38.017Z,0.00
2018-09-01T01:01:38.023Z,0.00
2018-09-01T01:02:37.991Z,0.00
2018-09-01T01:03:37.986Z,0.00
2018-09-01T01:04:37.969Z,0.00
2018-09-01T01:05:37.953Z,0.00
2018-09-01T01:06:37.981Z,0.00
2018-09-01T01:07:37.933Z,0.00
2018-09-01T01:08:38.333Z,0.00
2018-09-01T01:09:37.969Z,0.00
2018-09-01T01:10:38.141Z,0.00
2018-09-01T01:11:38.005Z,0.00
2018-09-01T01:12:38.291Z,0.00
2018-09-01T01:13:37.957Z,0.00
2018-09-01T01:14:37.875Z,0.00
2018-09-01T01:15:37.849Z,0.00
2018-09-01T01:16:37.827Z,0.00
2018-09-01T01:17:37.815Z,0.00
2018-09-01T01:18:37.841Z,0.00
2018-09-01T01:19:37.799Z,0.00
2018-09-01T01:20:37.782Z,0.00
2018-09-01T01:21:37.779Z,0.00
2018-09-01T01:22:37.761Z,0.00
2018-09-01T01:23:37.780Z,0.00
2018-09-01T01:24:37.756Z,0.00
2018-09-01T01:25:37.716Z,0.00
2018-09-01T01:26:37.714Z,0.00
2018-09-01T01:27:37.692Z,0.00
2018-09-01T01:28:37.714Z,0.00
2018-09-01T01:29:37.712Z,0.00
2018-09-01T01:30:37.661Z,0.00
2018-09-01T01:31:37.654Z,0.00
2018-09-01T01:32:37.647Z,0.00
2018-09-01T01:33:37.628Z,0.00
2018-09-01T01:34:37.647Z,0.00
2018-09-01T01:35:37.642Z,0.00
2018-09-01T01:36:37.600Z,0.00
2018-09-01T01:37:37.591Z,0.00
2018-09-01T01:38:37.574Z,0.00
2018-09-01T01:39:37.597Z,0.00
2018-09-01T01:40:37.588Z,0.00
2018-09-01T01:41:37.556Z,0.00
2018-09-01T01:42:37.541Z,0.00
2018-09-01T01:43:37.591Z,0.00
2018-09-01T01:44:37.531Z,0.00
2018-09-01T01:45:37.529Z,0.00
2018-09-01T01:46:37.493Z,0.00
2018-09-01T01:47:37.479Z,0.00
2018-09-01T01:48:37.469Z,0.00
2018-09-01T01:49:37.532Z,0.00
2018-09-01T01:50:37.482Z,0.00
2018-09-01T01:51:37.445Z,0.00
2018-09-01T01:52:37.421Z,0.00
2018-09-01T01:53:37.415Z,0.00
2018-09-01T01:54:37.431Z,0.00
2018-09-01T01:55:37.388Z,0.00
2018-09-01T01:56:37.382Z,0.00
2018-09-01T01:57:37.356Z,0.00
2018-09-01T01:58:37.347Z,0.00
2018-09-01T01:59:37.368Z,0.00
2018-09-01T02:00:37.348Z,0.00
2018-09-01T02:01:37.356Z,0.00
2018-09-01T02:02:37.304Z,0.00
2018-09-01T02:03:37.318Z,0.00
2018-09-01T02:04:37.320Z,0.00
2018-09-01T02:05:37.270Z,0.00
2018-09-01T02:06:37.275Z,0.00
2018-09-01T02:07:37.251Z,0.00
2018-09-01T02:08:37.236Z,0.00
2018-09-01T02:09:37.251Z,0.00
2018-09-01T02:10:37.240Z,0.00
2018-09-01T02:11:37.200Z,0.00
2018-09-01T02:12:37.192Z,0.00
2018-09-01T02:13:37.188Z,0.00
2018-09-01T02:14:37.194Z,0.00
2018-09-01T02:15:37.160Z,0.00
2018-09-01T02:16:37.144Z,0.00
2018-09-01T02:17:37.134Z,0.00
2018-09-01T02:18:37.126Z,0.00
2018-09-01T02:19:37.134Z,0.00
2018-09-01T02:20:37.106Z,0.00
2018-09-01T02:21:37.098Z,0.00
2018-09-01T02:22:37.082Z,0.00
2018-09-01T02:23:37.070Z,0.00
2018-09-01T02:24:37.092Z,0.00
2018-09-01T02:25:37.042Z,0.00
2018-09-01T02:26:37.042Z,0.00
2018-09-01T02:27:37.033Z,0.00
2018-09-01T02:28:37.031Z,0.00
2018-09-01T02:29:37.041Z,0.00
2018-09-01T02:30:37.003Z,0.00
2018-09-01T02:31:36.981Z,0.00
2018-09-01T02:32:36.981Z,0.00
2018-09-01T02:33:36.999Z,0.00
2018-09-01T02:34:36.981Z,0.00
2018-09-01T02:35:36.941Z,0.00
2018-09-01T02:36:36.932Z,0.00
2018-09-01T02:37:36.945Z,0.00
2018-09-01T02:38:36.910Z,0.00
2018-09-01T02:39:36.971Z,0.00
2018-09-01T02:40:36.893Z,0.00
2018-09-01T02:41:36.869Z,0.00
2018-09-01T02:42:36.864Z,0.00
2018-09-01T02:43:36.850Z,0.00
2018-09-01T02:44:36.869Z,0.00
2018-09-01T02:45:36.832Z,0.00
2018-09-01T02:46:36.812Z,0.00
2018-09-01T02:47:36.807Z,0.00
2018-09-01T02:48:36.790Z,0.00
2018-09-01T02:49:36.812Z,0.00
2018-09-01T02:50:36.802Z,0.00
2018-09-01T02:51:36.764Z,0.00
2018-09-01T02:52:36.753Z,0.00
2018-09-01T02:53:36.735Z,0.00
2018-09-01T02:54:36.760Z,0.00
2018-09-01T02:55:36.711Z,0.00
2018-09-01T02:56:36.704Z,0.00
2018-09-01T02:57:36.688Z,0.00
2018-09-01T02:58:36.688Z,0.00
2018-09-01T02:59:36.698Z,0.00
2018-09-01T03:00:36.648Z,0.00
2018-09-01T03:01:36.644Z,0.00
2018-09-01T03:02:36.619Z,0.00
2018-09-01T03:03:36.620Z,0.00
2018-09-01T03:04:36.638Z,0.00
2018-09-01T03:05:36.593Z,0.00
2018-09-01T03:06:36.590Z,0.00
2018-09-01T03:07:36.569Z,0.00
2018-09-01T03:08:36.561Z,0.00
2018-09-01T03:09:36.593Z,0.00
2018-09-01T03:10:36.532Z,0.00
2018-09-01T03:11:36.526Z,0.00
2018-09-01T03:12:36.515Z,0.00
2018-09-01T03:13:36.507Z,0.00
2018-09-01T03:14:36.522Z,0.00
2018-09-01T03:15:36.484Z,0.00
2018-09-01T03:16:36.474Z,0.00
2018-09-01T03:17:36.458Z,0.00
2018-09-01T03:18:36.452Z,0.00
2018-09-01T03:19:36.466Z,0.00
2018-09-01T03:20:36.422Z,0.00
2018-09-01T03:21:36.415Z,0.00
2018-09-01T03:22:36.404Z,0.00
2018-09-01T03:23:36.389Z,0.00
2018-09-01T03:24:36.413Z,0.00
2018-09-01T03:25:36.375Z,0.00
2018-09-01T03:26:36.359Z,0.00
2018-09-01T03:27:36.348Z,0.00
2018-09-01T03:28:36.338Z,0.00
2018-09-01T03:29:36.358Z,0.00
2018-09-01T03:30:36.315Z,0.00
2018-09-01T03:31:36.311Z,0.00
2018-09-01T03:32:36.297Z,0.00
2018-09-01T03:33:36.293Z,0.00
2018-09-01T03:34:36.305Z,0.00
2018-09-01T03:35:36.272Z,0.00
2018-09-01T03:36:36.255Z,0.00
2018-09-01T03:37:36.246Z,0.00
2018-09-01T03:38:36.232Z,0.00
2018-09-01T03:39:36.259Z,0.00
2018-09-01T03:40:36.211Z,0.00
2018-09-01T03:41:36.208Z,0.00
2018-09-01T03:42:36.188Z,0.00
2018-09-01T03:43:36.174Z,0.00
2018-09-01T03:44:36.198Z,0.00
2018-09-01T03:45:36.183Z,0.00
2018-09-01T03:46:36.141Z,0.00
2018-09-01T03:47:36.142Z,4.00
2018-09-01T03:48:36.121Z,4.00
2018-09-01T03:49:36.150Z,4.00
2018-09-01T03:50:36.103Z,4.00
2018-09-01T03:51:36.087Z,4.00
2018-09-01T03:52:36.074Z,4.00
2018-09-01T03:53:36.065Z,8.00
2018-09-01T03:54:36.109Z,8.00
2018-09-01T03:55:36.045Z,8.00
2018-09-01T03:56:36.031Z,8.00
2018-09-01T03:57:36.026Z,12.00
2018-09-01T03:58:36.012Z,12.00
2018-09-01T03:59:36.021Z,16.00
2018-09-01T04:00:35.988Z,20.00
2018-09-01T04:01:35.975Z,24.00
2018-09-01T04:02:35.995Z,28.00
2018-09-01T04:03:35.942Z,28.00
2018-09-01T04:04:35.934Z,36.00
2018-09-01T04:05:35.923Z,40.00
2018-09-01T04:06:35.908Z,44.00
2018-09-01T04:07:35.932Z,52.00
2018-09-01T04:08:35.890Z,56.00
2018-09-01T04:09:35.878Z,60.00
2018-09-01T04:10:35.898Z,72.00
2018-09-01T04:11:35.854Z,84.00
2018-09-01T04:12:35.878Z,88.00
2018-09-01T04:13:35.832Z,96.00
2018-09-01T04:14:35.852Z,112.00
2018-09-01T04:15:35.815Z,124.00
2018-09-01T04:16:35.796Z,136.00
2018-09-01T04:17:35.825Z,152.00
2018-09-01T04:18:35.777Z,164.00
2018-09-01T04:19:35.767Z,180.00
2018-09-01T04:20:35.760Z,196.00
2018-09-01T04:21:35.758Z,212.00
2018-09-01T04:22:35.774Z,232.00
2018-09-01T04:23:35.720Z,252.00
2018-09-01T04:24:35.718Z,272.00
2018-09-01T04:25:35.703Z,292.00
2018-09-01T04:26:35.688Z,316.00
2018-09-01T04:27:35.718Z,336.00
2018-09-01T04:28:35.669Z,360.00
2018-09-01T04:29:35.650Z,388.00
2018-09-01T04:30:35.646Z,412.00
2018-09-01T04:31:35.627Z,436.00
2018-09-01T04:32:35.667Z,460.00
2018-09-01T04:33:35.613Z,488.00
2018-09-01T04:34:35.602Z,516.00
2018-09-01T04:35:35.596Z,544.00
2018-09-01T04:36:35.579Z,572.00
2018-09-01T04:37:35.617Z,600.00
2018-09-01T04:38:35.561Z,632.00
2018-09-01T04:39:35.557Z,660.00
2018-09-01T04:40:35.543Z,692.00
2018-09-01T04:41:35.529Z,724.00
2018-09-01T04:42:35.555Z,752.00
2018-09-01T04:43:35.501Z,784.00
2018-09-01T04:44:35.495Z,816.00
2018-09-01T04:45:35.490Z,848.00
2018-09-01T04:46:35.475Z,884.00
2018-09-01T04:47:35.493Z,920.00
2018-09-01T04:48:35.471Z,952.00
2018-09-01T04:49:35.441Z,984.00
2018-09-01T04:50:35.424Z,1020.00
2018-09-01T04:51:35.449Z,1052.00
2018-09-01T04:52:35.413Z,1088.00
2018-09-01T04:53:35.391Z,1128.00
2018-09-01T04:54:35.383Z,1160.00
2018-09-01T04:55:35.392Z,1192.00
2018-09-01T04:56:35.389Z,1228.00
2018-09-01T04:57:35.355Z,1268.00
2018-09-01T04:58:35.344Z,1308.00
2018-09-01T04:59:35.332Z,1344.00
2018-09-01T05:00:35.345Z,1384.00
2018-09-01T05:01:35.343Z,1420.00
2018-09-01T05:02:35.305Z,1448.00
2018-09-01T05:03:35.280Z,1488.00
2018-09-01T05:04:35.275Z,1520.00
2018-09-01T05:05:35.262Z,1560.00
2018-09-01T05:06:35.279Z,1596.00
2018-09-01T05:07:35.227Z,1636.00
2018-09-01T05:08:35.213Z,1664.00
2018-09-01T05:09:35.210Z,1692.00
2018-09-01T05:10:35.189Z,1728.00
2018-09-01T05:11:35.215Z,1756.00
2018-09-01T05:12:35.174Z,1788.00
2018-09-01T05:13:35.171Z,1836.00
2018-09-01T05:14:35.149Z,1924.00
2018-09-01T05:15:35.168Z,1952.00
2018-09-01T05:16:35.136Z,2112.00
2018-09-01T05:17:35.116Z,2268.00
2018-09-01T05:18:35.100Z,2688.00
2018-09-01T05:19:35.095Z,2644.00
2018-09-01T05:20:35.118Z,2268.00
2018-09-01T05:21:35.078Z,2184.00
2018-09-01T05:22:35.056Z,2600.00
2018-09-01T05:23:35.052Z,2876.00
2018-09-01T05:24:35.040Z,3272.00
2018-09-01T05:25:35.069Z,3312.00
2018-09-01T05:26:35.021Z,3200.00
2018-09-01T05:27:34.997Z,3060.00
2018-09-01T05:28:34.985Z,2980.00
2018-09-01T05:29:34.984Z,2900.00
2018-09-01T05:30:35.006Z,2968.00
2018-09-01T05:31:34.961Z,2976.00
2018-09-01T05:32:34.948Z,2928.00
2018-09-01T05:33:34.932Z,2736.00
2018-09-01T05:34:34.924Z,2580.00
2018-09-01T05:35:34.941Z,2560.00
2018-09-01T05:36:34.991Z,2604.00
2018-09-01T05:37:34.886Z,2768.00
2018-09-01T05:38:34.914Z,3036.00
2018-09-01T05:39:34.875Z,3120.00
2018-09-01T05:40:34.863Z,3204.00
2018-09-01T05:41:34.895Z,3164.00
2018-09-01T05:42:34.845Z,3016.00
2018-09-01T05:43:34.862Z,2940.00
2018-09-01T05:44:34.818Z,3004.00
2018-09-01T05:45:34.810Z,3188.00
2018-09-01T05:46:34.833Z,3224.00
2018-09-01T05:47:34.788Z,3188.00
2018-09-01T05:48:34.775Z,3348.00
2018-09-01T05:49:34.785Z,3616.00
2018-09-01T05:50:34.777Z,3732.00
2018-09-01T05:51:34.755Z,3588.00
2018-09-01T05:52:34.731Z,3436.00
2018-09-01T05:53:34.721Z,3580.00
2018-09-01T05:54:34.740Z,3764.00
2018-09-01T05:55:34.692Z,4032.00
2018-09-01T05:56:34.682Z,4140.00
2018-09-01T05:57:34.666Z,4168.00
2018-09-01T05:58:34.657Z,3784.00
2018-09-01T05:59:34.676Z,3672.00
2018-09-01T06:00:34.685Z,3988.00
2018-09-01T06:01:34.631Z,6240.00
2018-09-01T06:02:34.617Z,5492.00
2018-09-01T06:03:34.619Z,6772.00
2018-09-01T06:04:34.640Z,7960.00
2018-09-01T06:05:34.582Z,8296.00
2018-09-01T06:06:34.568Z,9156.00
2018-09-01T06:07:34.554Z,10656.00
2018-09-01T06:08:34.580Z,10684.00
2018-09-01T06:09:34.608Z,10492.00
2018-09-01T06:10:34.532Z,7900.00
2018-09-01T06:11:34.519Z,8224.00
2018-09-01T06:12:34.506Z,8884.00
2018-09-01T06:13:34.501Z,6496.00
2018-09-01T06:14:34.509Z,6848.00
2018-09-01T06:15:34.478Z,7424.00
2018-09-01T06:16:34.462Z,6788.00
2018-09-01T06:17:34.515Z,7032.00
2018-09-01T06:18:34.469Z,7524.00
2018-09-01T06:19:34.454Z,8124.00
2018-09-01T06:20:34.414Z,7704.00
2018-09-01T06:21:34.429Z,14232.00
2018-09-01T06:22:34.393Z,7908.00
2018-09-01T06:23:34.391Z,20896.00
2018-09-01T06:24:34.399Z,20224.00
2018-09-01T06:25:34.368Z,20224.00
2018-09-01T06:26:34.349Z,8740.00
2018-09-01T06:27:34.341Z,23840.00
2018-09-01T06:28:34.359Z,23488.00
2018-09-01T06:29:34.313Z,23552.00
2018-09-01T06:30:34.304Z,13016.00
2018-09-01T06:31:34.289Z,21952.00
2018-09-01T06:32:34.279Z,24224.00
2018-09-01T06:33:34.299Z,25376.00
2018-09-01T06:34:34.262Z,25408.00
2018-09-01T06:35:34.248Z,17472.00
2018-09-01T06:36:34.242Z,25952.00
2018-09-01T06:37:34.282Z,10320.00
2018-09-01T06:38:34.244Z,26560.00
2018-09-01T06:39:34.207Z,10560.00
2018-09-01T06:40:34.233Z,13652.00
2018-09-01T06:41:34.187Z,8824.00
2018-09-01T06:42:34.196Z,10496.00
2018-09-01T06:43:34.148Z,10988.00
2018-09-01T06:44:34.149Z,7744.00
2018-09-01T06:45:34.159Z,12300.00
2018-09-01T06:46:34.116Z,11524.00
2018-09-01T06:47:34.116Z,7772.00
2018-09-01T06:48:34.092Z,9032.00
2018-09-01T06:49:34.120Z,14980.00
2018-09-01T06:50:34.072Z,31264.00
2018-09-01T06:51:34.100Z,29312.00
2018-09-01T06:52:34.050Z,9216.00
2018-09-01T06:53:34.051Z,8748.00
2018-09-01T06:54:34.065Z,6936.00
2018-09-01T06:55:34.060Z,28800.00
2018-09-01T06:56:34.011Z,25760.00
2018-09-01T06:57:34.000Z,26272.00
2018-09-01T06:58:34.000Z,29888.00
2018-09-01T06:59:33.975Z,33248.00
2018-09-01T07:00:33.996Z,31712.00
2018-09-01T07:01:33.983Z,30272.00
2018-09-01T07:02:33.946Z,31200.00
2018-09-01T07:03:33.928Z,32160.00
2018-09-01T07:04:33.927Z,18560.00
2018-09-01T07:05:33.904Z,19744.00
2018-09-01T07:06:33.931Z,20224.00
2018-09-01T07:07:33.900Z,22432.00
2018-09-01T07:08:33.873Z,20256.00
2018-09-01T07:09:33.859Z,15328.00
2018-09-01T07:10:33.861Z,15108.00
2018-09-01T07:11:33.899Z,13232.00
2018-09-01T07:12:33.827Z,12472.00
2018-09-01T07:13:33.820Z,20480.00
2018-09-01T07:14:33.832Z,22528.00
2018-09-01T07:15:33.831Z,11728.00
2018-09-01T07:16:33.795Z,9152.00
2018-09-01T07:17:33.779Z,7468.00
2018-09-01T07:18:33.787Z,6856.00
2018-09-01T07:19:33.760Z,6268.00
2018-09-01T07:20:33.777Z,6332.00
2018-09-01T07:21:33.743Z,11836.00
2018-09-01T07:22:33.733Z,7236.00
2018-09-01T07:23:33.793Z,7496.00
2018-09-01T07:24:33.705Z,6120.00
2018-09-01T07:25:33.823Z,7412.00
2018-09-01T07:26:33.679Z,8068.00
2018-09-01T07:27:33.675Z,8124.00
2018-09-01T07:28:33.665Z,7820.00
2018-09-01T07:29:33.654Z,8544.00
2018-09-01T07:30:33.827Z,7092.00
2018-09-01T07:31:34.048Z,7340.00
2018-09-01T07:32:33.611Z,7328.00
2018-09-01T07:33:33.649Z,9520.00
2018-09-01T07:34:33.602Z,9828.00
2018-09-01T07:35:33.615Z,9356.00
2018-09-01T07:36:33.579Z,13276.00
2018-09-01T07:37:33.573Z,9636.00
2018-09-01T07:38:33.597Z,11012.00
2018-09-01T07:39:33.541Z,11524.00
2018-09-01T07:40:33.525Z,10120.00
2018-09-01T07:41:33.515Z,14032.00
2018-09-01T07:42:33.506Z,10480.00
2018-09-01T07:43:33.527Z,11616.00
2018-09-01T07:44:33.483Z,12892.00
2018-09-01T07:45:33.476Z,10636.00
2018-09-01T07:46:33.458Z,9060.00
2018-09-01T07:47:33.444Z,6560.00
2018-09-01T07:48:33.458Z,6404.00
2018-09-01T07:49:33.412Z,5548.00
2018-09-01T07:50:33.416Z,6640.00
2018-09-01T07:51:33.392Z,6672.00
2018-09-01T07:52:33.382Z,8052.00
2018-09-01T07:53:33.414Z,6136.00
2018-09-01T07:54:33.411Z,6860.00
2018-09-01T07:55:33.350Z,6576.00
2018-09-01T07:56:33.343Z,8388.00
2018-09-01T07:57:33.325Z,6980.00
2018-09-01T07:58:33.354Z,7056.00
2018-09-01T07:59:33.306Z,7764.00
2018-09-01T08:00:33.306Z,10508.00
2018-09-01T08:01:33.279Z,6696.00
2018-09-01T08:02:33.308Z,24544.00
2018-09-01T08:03:33.256Z,17888.00
2018-09-01T08:04:33.247Z,17600.00
2018-09-01T08:05:33.235Z,12388.00
2018-09-01T08:06:33.223Z,9688.00
2018-09-01T08:07:33.334Z,11584.00
2018-09-01T08:08:33.206Z,12836.00
2018-09-01T08:09:33.190Z,19296.00
2018-09-01T08:10:33.186Z,14612.00
2018-09-01T08:11:33.173Z,11160.00
2018-09-01T08:12:33.188Z,9040.00
2018-09-01T08:13:33.203Z,7520.00
2018-09-01T08:14:33.193Z,7604.00
2018-09-01T08:15:33.129Z,7160.00
2018-09-01T08:16:33.110Z,8212.00
2018-09-01T08:17:33.145Z,8392.00
2018-09-01T08:18:33.126Z,9388.00
2018-09-01T08:19:33.095Z,9104.00
2018-09-01T08:20:33.081Z,8552.00
2018-09-01T08:21:33.083Z,8152.00
2018-09-01T08:22:33.063Z,9092.00
2018-09-01T08:23:33.075Z,9472.00
2018-09-01T08:24:33.041Z,10056.00
2018-09-01T08:25:33.023Z,9776.00
2018-09-01T08:26:33.009Z,9848.00
2018-09-01T08:27:33.031Z,11176.00
2018-09-01T08:28:32.995Z,12816.00
2018-09-01T08:29:32.976Z,14136.00
2018-09-01T08:30:33.000Z,19840.00
2018-09-01T08:31:32.952Z,14724.00
2018-09-01T08:32:32.979Z,24032.00
2018-09-01T08:33:32.974Z,29984.00
2018-09-01T08:34:32.927Z,16480.00
2018-09-01T08:35:32.920Z,17760.00
2018-09-01T08:36:32.902Z,17824.00
2018-09-01T08:37:32.926Z,15608.00
2018-09-01T08:38:32.891Z,16480.00
2018-09-01T08:39:32.906Z,11880.00
2018-09-01T08:40:32.854Z,12704.00
2018-09-01T08:41:32.843Z,11584.00
2018-09-01T08:42:32.861Z,11108.00
2018-09-01T08:43:32.873Z,14176.00
2018-09-01T08:44:32.806Z,13664.00
2018-09-01T08:45:32.799Z,12600.00
2018-09-01T08:46:32.787Z,14428.00
2018-09-01T08:47:32.785Z,14928.00
2018-09-01T08:48:32.806Z,15108.00
2018-09-01T08:49:32.755Z,13808.00
2018-09-01T08:50:32.748Z,13248.00
2018-09-01T08:51:32.789Z,12472.00
2018-09-01T08:52:32.778Z,11660.00
2018-09-01T08:53:32.859Z,11208.00
2018-09-01T08:54:32.694Z,13372.00
2018-09-01T08:55:32.674Z,14608.00
2018-09-01T08:56:32.708Z,26816.00
2018-09-01T08:57:32.666Z,23680.00
2018-09-01T08:58:32.840Z,13680.00
2018-09-01T08:59:32.643Z,13412.00
2018-09-01T09:00:32.642Z,14740.00
2018-09-01T09:01:32.726Z,14920.00
2018-09-01T09:02:32.612Z,14376.00
2018-09-01T09:03:32.596Z,13364.00
2018-09-01T09:04:32.604Z,14068.00
2018-09-01T09:05:32.634Z,15516.00
2018-09-01T09:06:32.590Z,16116.00
2018-09-01T09:07:32.545Z,21696.00
2018-09-01T09:08:32.536Z,31360.00
2018-09-01T09:09:32.575Z,30048.00
2018-09-01T09:10:32.526Z,14844.00
2018-09-01T09:11:32.578Z,12036.00
2018-09-01T09:12:32.542Z,10676.00
2018-09-01T09:13:32.493Z,10264.00
2018-09-01T09:14:32.488Z,11636.00
2018-09-01T09:15:32.518Z,11028.00
2018-09-01T09:16:32.479Z,14876.00
2018-09-01T09:17:32.486Z,35520.00
2018-09-01T09:18:32.488Z,47456.00
2018-09-01T09:19:32.440Z,68896.00
2018-09-01T09:20:32.432Z,59232.00
2018-09-01T09:21:32.394Z,35776.00
2018-09-01T09:22:32.394Z,72736.00
2018-09-01T09:23:32.415Z,74176.00
2018-09-01T09:24:32.388Z,74080.00
2018-09-01T09:25:32.433Z,73504.00
2018-09-01T09:26:32.363Z,72736.00
2018-09-01T09:27:32.340Z,73664.00
2018-09-01T09:28:32.321Z,73088.00
2018-09-01T09:29:32.372Z,73952.00
2018-09-01T09:30:32.354Z,74464.00
2018-09-01T09:31:32.371Z,74240.00
2018-09-01T09:32:32.346Z,74112.00
2018-09-01T09:33:32.318Z,73920.00
2018-09-01T09:34:32.306Z,73344.00
2018-09-01T09:35:32.247Z,77888.00
2018-09-01T09:36:32.243Z,27488.00
2018-09-01T09:37:32.224Z,20448.00
2018-09-01T09:38:32.249Z,82208.00
2018-09-01T09:39:32.205Z,80960.00
2018-09-01T09:40:32.189Z,50528.00
2018-09-01T09:41:32.230Z,14412.00
2018-09-01T09:42:32.170Z,77408.00
2018-09-01T09:43:32.190Z,23104.00
2018-09-01T09:44:32.151Z,13676.00
2018-09-01T09:45:32.148Z,77824.00
2018-09-01T09:46:32.140Z,72480.00
2018-09-01T09:47:32.195Z,52448.00
2018-09-01T09:48:32.105Z,26624.00
2018-09-01T09:49:32.098Z,20224.00
2018-09-01T09:50:32.087Z,78720.00
2018-09-01T09:51:32.083Z,76256.00
2018-09-01T09:52:32.094Z,76384.00
2018-09-01T09:53:32.065Z,76160.00
2018-09-01T09:54:32.078Z,76480.00
2018-09-01T09:55:32.028Z,77152.00
2018-09-01T09:56:32.019Z,80128.00
2018-09-01T09:57:32.001Z,85440.00
2018-09-01T09:58:32.133Z,87328.00
2018-09-01T09:59:31.981Z,84672.00
2018-09-01T10:00:31.972Z,19552.00
2018-09-01T10:01:31.962Z,13460.00
2018-09-01T10:02:31.950Z,15036.00
2018-09-01T10:03:31.977Z,10116.00
2018-09-01T10:04:32.016Z,10764.00
2018-09-01T10:05:31.950Z,82912.00
2018-09-01T10:06:31.916Z,81120.00
2018-09-01T10:07:31.890Z,81728.00
2018-09-01T10:08:31.890Z,83424.00
2018-09-01T10:09:31.938Z,85120.00
2018-09-01T10:10:31.868Z,84864.00
2018-09-01T10:11:31.859Z,87072.00
2018-09-01T10:12:31.857Z,86688.00
2018-09-01T10:13:31.846Z,24768.00
2018-09-01T10:14:31.876Z,15272.00
2018-09-01T10:15:31.818Z,13876.00
2018-09-01T10:16:31.816Z,14144.00
2018-09-01T10:17:31.795Z,88224.00
2018-09-01T10:18:31.790Z,86912.00
2018-09-01T10:19:31.812Z,88960.00
2018-09-01T10:20:31.831Z,89536.00
2018-09-01T10:21:31.781Z,90368.00
2018-09-01T10:22:31.822Z,91584.00
2018-09-01T10:23:31.806Z,91584.00
2018-09-01T10:24:31.807Z,78912.00
2018-09-01T10:25:31.851Z,36768.00
2018-09-01T10:26:31.773Z,82656.00
2018-09-01T10:27:31.760Z,68384.00
2018-09-01T10:28:31.750Z,87136.00
2018-09-01T10:29:31.766Z,88064.00
2018-09-01T10:30:31.788Z,89568.00
2018-09-01T10:31:31.728Z,91520.00
2018-09-01T10:32:31.692Z,92608.00
2018-09-01T10:33:31.703Z,94784.00
2018-09-01T10:34:31.706Z,94560.00
2018-09-01T10:35:31.778Z,80544.00
2018-09-01T10:36:31.672Z,22688.00
2018-09-01T10:37:31.949Z,25952.00
2018-09-01T10:38:31.695Z,19200.00
2018-09-01T10:39:31.598Z,93376.00
2018-09-01T10:40:31.700Z,20608.00
2018-09-01T10:41:31.608Z,94272.00
2018-09-01T10:42:31.644Z,74560.00
2018-09-01T10:43:31.578Z,64096.00
2018-09-01T10:44:31.616Z,35776.00
2018-09-01T10:45:31.544Z,31456.00
2018-09-01T10:46:31.548Z,97664.00
2018-09-01T10:47:31.636Z,93568.00
2018-09-01T10:48:31.552Z,96448.00
2018-09-01T10:49:31.535Z,23264.00
2018-09-01T10:50:31.500Z,17984.00
2018-09-01T10:51:31.486Z,65856.00
2018-09-01T10:52:31.583Z,86976.00
2018-09-01T10:53:31.793Z,89760.00
2018-09-01T10:54:31.477Z,92160.00
2018-09-01T10:55:31.465Z,87008.00
2018-09-01T10:56:31.464Z,95072.00
2018-09-01T10:57:31.524Z,96256.00
2018-09-01T10:58:31.627Z,95328.00
2018-09-01T10:59:31.602Z,90880.00
2018-09-01T11:00:31.478Z,88800.00
2018-09-01T11:01:31.407Z,88480.00
2018-09-01T11:02:31.410Z,89440.00
2018-09-01T11:03:31.378Z,87744.00
2018-09-01T11:04:31.393Z,88512.00
2018-09-01T11:05:31.468Z,87840.00
2018-09-01T11:06:31.422Z,88608.00
2018-09-01T11:07:31.356Z,90912.00
2018-09-01T11:08:31.351Z,91648.00
2018-09-01T11:09:31.323Z,85376.00
2018-09-01T11:10:31.339Z,82208.00
2018-09-01T11:11:31.576Z,79072.00
2018-09-01T11:12:31.304Z,82592.00
2018-09-01T11:13:31.302Z,84704.00
2018-09-01T11:14:31.271Z,89696.00
2018-09-01T11:15:31.262Z,93216.00
2018-09-01T11:16:31.318Z,87264.00
2018-09-01T11:17:31.336Z,84288.00
2018-09-01T11:18:31.750Z,82912.00
2018-09-01T11:19:31.241Z,85568.00
2018-09-01T11:20:31.164Z,85440.00
2018-09-01T11:21:31.256Z,85632.00
2018-09-01T11:22:31.258Z,87584.00
2018-09-01T11:23:31.179Z,86464.00
2018-09-01T11:24:31.182Z,86208.00
2018-09-01T11:25:31.156Z,83072.00
2018-09-01T11:26:31.156Z,81440.00
2018-09-01T11:27:31.328Z,80064.00
2018-09-01T11:28:31.064Z,80064.00
2018-09-01T11:29:31.136Z,80000.00
2018-09-01T11:30:31.107Z,80704.00
2018-09-01T11:31:31.172Z,79968.00
2018-09-01T11:32:31.049Z,79424.00
2018-09-01T11:33:31.093Z,77728.00
2018-09-01T11:34:31.066Z,76768.00
2018-09-01T11:35:31.258Z,75808.00
2018-09-01T11:36:31.150Z,74048.00
2018-09-01T11:37:31.020Z,73792.00
2018-09-01T11:38:31.028Z,76128.00
2018-09-01T11:39:31.025Z,78848.00
2018-09-01T11:40:31.006Z,27488.00
2018-09-01T11:41:31.083Z,60928.00
2018-09-01T11:42:31.077Z,81120.00
2018-09-01T11:43:30.990Z,84000.00
2018-09-01T11:44:30.941Z,85280.00
2018-09-01T11:45:30.946Z,86784.00
2018-09-01T11:46:31.016Z,85472.00
2018-09-01T11:47:30.977Z,85344.00
2018-09-01T11:48:30.945Z,85504.00
2018-09-01T11:49:30.901Z,83776.00
2018-09-01T11:50:30.886Z,81600.00
2018-09-01T11:51:30.883Z,80416.00
2018-09-01T11:52:30.960Z,82528.00
2018-09-01T11:53:30.907Z,82496.00
2018-09-01T11:54:30.873Z,85696.00
2018-09-01T11:55:30.776Z,83488.00
2018-09-01T11:56:30.776Z,81312.00
2018-09-01T11:57:30.795Z,81984.00
2018-09-01T11:58:30.880Z,81856.00
2018-09-01T11:59:30.755Z,82304.00
2018-09-01T12:00:30.754Z,82240.00
2018-09-01T12:01:30.781Z,81056.00
2018-09-01T12:02:30.712Z,80512.00
2018-09-01T12:03:30.716Z,80320.00
2018-09-01T12:04:30.700Z,80288.00
2018-09-01T12:05:30.682Z,81024.00
2018-09-01T12:06:30.700Z,81472.00
2018-09-01T12:07:30.661Z,79552.00
2018-09-01T12:08:30.657Z,79104.00
2018-09-01T12:09:30.673Z,77920.00
2018-09-01T12:10:30.639Z,78016.00
2018-09-01T12:11:30.651Z,80704.00
2018-09-01T12:12:30.628Z,81856.00
2018-09-01T12:13:30.604Z,81536.00
2018-09-01T12:14:30.584Z,79296.00
2018-09-01T12:15:30.590Z,76416.00
2018-09-01T12:16:30.614Z,74720.00
2018-09-01T12:17:30.561Z,77056.00
2018-09-01T12:18:30.580Z,80128.00
2018-09-01T12:19:30.632Z,80928.00
2018-09-01T12:20:30.521Z,80800.00